Kellys Korner, Washington
Current Conditions -  °F | °C
As of 12:54 PM on Friday 21 Nov 2014 (Local Time) from KOLM Reporting Station
Light Rain Light Rain  
Wind Chill: 11°   Ceiling: 2500
Heat Index: 11°   Visibility: 10mi
Dew Point:   Wind: 18mph
Humidity: 86%   Direction: 180°S
Pressure: 29.52"   Gusts: 26mph
Location:  46.9679°N, 122.834°W
Report Text: KOLM 212054Z 18016G23KT 10SM -RA SCT019 BKN025 OVC055 11/08 A2952 RMK AO2 SLP995 P0006 60021 T01060083 58058 $
Loading
Personal Weather Stations






























Interactive Weather Map New forecast layout! Learn more

10-Day Weather Forecast

Advertisements
Track Severe Weather on mobile